Time;durP1;ratioP1;P1;durP2;ratioP2;P2;SDS_P1;SDS_P2;PMS_P1;PMS_P2;Temp;Humidity;BMP_temperature;BMP_pressure;BME280_temperature;BME280_humidity;BME280_pressure;Samples;Min_cycle;Max_cycle;Signal;HPM_P1;HPM_P2
2022/02/04 00:09:19;;;;;;;284.87;68.20;;;7.20;99.90;;;;;;5112589;28;20466;-77
2022/02/04 00:20:23;;;;;;;153.30;59.33;;;7.20;99.90;;;;;;5115634;28;20478;-76
2022/02/04 00:23:05;;;;;;;226.70;58.33;;;7.20;99.90;;;;;;5095453;28;20452;-77
2022/02/04 00:25:45;;;;;;;209.97;65.97;;;7.30;99.90;;;;;;5095434;28;20460;-76
2022/02/04 00:28:21;;;;;;;231.80;68.90;;;7.30;99.90;;;;;;5096861;28;20577;-77
2022/02/04 00:31:03;;;;;;;250.13;63.10;;;7.30;99.90;;;;;;5109475;28;20450;-77
2022/02/04 00:33:33;;;;;;;238.47;62.33;;;7.30;99.90;;;;;;5116927;28;20427;-77
2022/02/04 00:36:08;;;;;;;264.57;63.13;;;7.30;99.90;;;;;;5115653;28;20436;-77
2022/02/04 00:38:42;;;;;;;216.67;59.00;;;7.30;99.90;;;;;;5102861;28;20484;-77
2022/02/04 00:41:12;;;;;;;277.60;63.00;;;7.30;99.90;;;;;;5095329;28;20469;-77
2022/02/04 00:43:42;;;;;;;246.87;62.87;;;7.30;99.90;;;;;;5108458;28;20457;-77
2022/02/04 00:46:14;;;;;;;302.60;65.33;;;7.30;99.90;;;;;;5100488;28;20451;-77
2022/02/04 00:49:08;;;;;;;271.90;62.87;;;7.30;99.90;;;;;;5094640;28;20840;-77
2022/02/04 00:51:44;;;;;;;269.70;62.33;;;7.30;99.90;;;;;;5094867;28;20509;-77
2022/02/04 00:54:22;;;;;;;140.10;54.93;;;7.30;99.90;;;;;;5095854;28;20471;-77
2022/02/04 00:57:07;;;;;;;311.40;75.90;;;7.30;99.90;;;;;;5094315;28;20449;-77
2022/02/04 01:13:39;;;;;;;202.47;54.00;;;7.40;99.90;;;;;;5104633;28;20498;-77
2022/02/04 01:27:12;;;;;;;198.93;52.10;;;7.40;99.90;;;;;;5114683;28;21003;-77
2022/02/04 01:29:51;;;;;;;263.50;60.83;;;7.40;99.90;;;;;;5103930;27;20469;-77
2022/02/04 01:32:20;;;;;;;299.70;68.77;;;7.40;99.90;;;;;;5094270;28;20445;-77
2022/02/04 01:34:48;;;;;;;144.50;53.13;;;7.40;99.90;;;;;;5094031;28;20981;-77
2022/02/04 01:37:16;;;;;;;200.10;58.63;;;7.40;99.90;;;;;;5115277;28;20535;-77
2022/02/04 01:39:44;;;;;;;366.97;65.13;;;7.40;99.90;;;;;;5115960;28;20475;-77
2022/02/04 01:42:14;;;;;;;184.27;61.27;;;7.40;99.90;;;;;;5115978;28;20477;-77
2022/02/04 01:44:43;;;;;;;270.80;58.47;;;7.40;99.90;;;;;;5102828;28;21042;-77
2022/02/04 01:47:13;;;;;;;161.47;51.53;;;7.40;99.90;;;;;;5094092;28;20446;-77
2022/02/04 01:49:41;;;;;;;151.93;49.40;;;7.40;99.90;;;;;;5094317;28;21036;-77
2022/02/04 01:52:10;;;;;;;330.03;71.13;;;7.40;99.90;;;;;;5094302;28;20453;-77
2022/02/04 01:54:39;;;;;;;337.10;65.47;;;7.40;99.90;;;;;;5093716;28;20533;-77
2022/02/04 01:57:07;;;;;;;318.53;78.43;;;7.40;99.90;;;;;;5110230;28;20552;-77
2022/02/04 01:59:37;;;;;;;260.90;58.73;;;7.40;99.90;;;;;;5110214;28;20476;-77
2022/02/04 02:02:05;;;;;;;206.37;65.33;;;7.40;99.90;;;;;;5096219;28;20478;-76
2022/02/04 02:04:33;;;;;;;210.70;60.03;;;7.40;99.90;;;;;;5093702;28;20491;-77
2022/02/04 02:07:08;;;;;;;312.40;71.27;;;7.40;99.90;;;;;;5093287;28;20542;-77
2022/02/04 02:09:47;;;;;;;273.57;61.00;;;7.40;99.90;;;;;;5093847;28;20461;-77
2022/02/04 02:12:17;;;;;;;192.93;51.20;;;7.40;99.90;;;;;;5093603;28;20544;-77
2022/02/04 02:14:56;;;;;;;97.50;49.07;;;7.40;99.90;;;;;;5099688;28;20447;-77
2022/02/04 02:42:44;;;;;;;239.80;58.57;;;7.30;99.90;;;;;;5113171;28;20466;-77
2022/02/04 02:45:26;;;;;;;265.70;58.63;;;7.30;99.90;;;;;;5114787;28;20426;-77
2022/02/04 02:48:12;;;;;;;149.27;51.37;;;7.30;99.90;;;;;;5104625;28;20461;-77
2022/02/04 02:50:59;;;;;;;286.87;59.30;;;7.30;99.90;;;;;;5093373;28;20537;-77
2022/02/04 02:53:48;;;;;;;260.07;61.50;;;7.30;99.90;;;;;;5093677;28;20437;-77
2022/02/04 02:59:09;;;;;;;144.30;49.73;;;7.30;99.90;;;;;;5067764;28;20572;-76
2022/02/04 03:01:44;;;;;;;272.57;55.90;;;7.30;99.90;;;;;;5105099;28;20500;-77
2022/02/04 03:04:15;;;;;;;212.50;53.47;;;7.30;99.90;;;;;;5113181;28;20550;-77
2022/02/04 03:06:44;;;;;;;251.40;65.40;;;7.30;99.90;;;;;;5113000;28;20973;-78
2022/02/04 03:09:13;;;;;;;200.13;54.03;;;7.30;99.90;;;;;;5112395;28;20472;-78
2022/02/04 03:11:42;;;;;;;262.90;51.17;;;7.30;99.90;;;;;;5093653;28;21025;-78
2022/02/04 03:14:11;;;;;;;196.63;53.87;;;7.30;99.90;;;;;;5092558;28;20950;-77
2022/02/04 03:16:40;;;;;;;268.50;67.67;;;7.30;99.90;;;;;;5092597;28;20563;-77
2022/02/04 03:19:09;;;;;;;219.00;54.23;;;7.30;99.90;;;;;;5094374;28;20456;-77
2022/02/04 03:21:40;;;;;;;222.40;56.57;;;7.30;99.90;;;;;;5103157;28;20464;-78
2022/02/04 03:24:12;;;;;;;208.47;57.43;;;7.30;99.90;;;;;;5114316;28;20519;-77
2022/02/04 03:26:48;;;;;;;213.70;45.80;;;7.30;99.90;;;;;;5113729;28;20784;-77
2022/02/04 03:29:22;;;;;;;156.63;49.60;;;7.30;99.90;;;;;;5112270;28;20468;-77
2022/02/04 03:31:54;;;;;;;369.23;66.23;;;7.30;99.90;;;;;;5092321;28;20817;-77
2022/02/04 03:34:22;;;;;;;150.53;48.20;;;7.30;99.90;;;;;;5100456;28;20462;-77
2022/02/04 03:36:50;;;;;;;295.23;58.53;;;7.30;99.90;;;;;;5112786;28;20448;-77
2022/02/04 03:39:18;;;;;;;226.10;54.97;;;7.30;99.90;;;;;;5114255;28;20494;-77
2022/02/04 03:41:48;;;;;;;308.67;60.47;;;7.30;99.90;;;;;;5112684;28;20570;-77
2022/02/04 03:44:18;;;;;;;312.67;54.83;;;7.30;99.90;;;;;;5112646;28;20433;-77
2022/02/04 03:46:47;;;;;;;182.87;50.50;;;7.30;99.90;;;;;;5101850;28;20485;-77
2022/02/04 03:49:15;;;;;;;214.43;48.40;;;7.30;99.90;;;;;;5094113;28;20508;-77
2022/02/04 03:51:43;;;;;;;141.83;44.63;;;7.30;99.90;;;;;;5092991;28;20451;-77
2022/02/04 03:54:11;;;;;;;221.03;62.70;;;7.30;99.90;;;;;;5094418;28;20931;-77
2022/02/04 03:56:39;;;;;;;288.47;57.57;;;7.20;99.90;;;;;;5092979;28;20547;-77
2022/02/04 03:59:09;;;;;;;237.23;56.67;;;7.30;99.90;;;;;;5094140;28;20999;-77
2022/02/04 04:01:37;;;;;;;195.07;48.63;;;7.30;99.90;;;;;;5094866;28;20465;-77
2022/02/04 04:04:05;;;;;;;212.97;52.77;;;7.30;99.90;;;;;;5092742;28;20452;-77
2022/02/04 04:06:33;;;;;;;216.10;49.40;;;7.30;99.90;;;;;;5100403;28;20461;-78
2022/02/04 04:09:02;;;;;;;176.70;51.07;;;7.30;99.90;;;;;;5112780;28;20457;-77
2022/02/04 04:11:30;;;;;;;297.30;56.87;;;7.30;99.90;;;;;;5112905;28;20540;-77
2022/02/04 04:13:58;;;;;;;279.27;54.33;;;7.20;99.90;;;;;;5113904;28;20470;-77
2022/02/04 04:16:28;;;;;;;172.03;46.37;;;7.20;99.90;;;;;;5113015;28;20491;-77
2022/02/04 04:18:56;;;;;;;273.57;58.37;;;7.20;99.90;;;;;;5113399;28;20460;-77
2022/02/04 04:21:24;;;;;;;268.43;57.97;;;7.20;99.90;;;;;;5110191;28;20821;-78
2022/02/04 04:23:52;;;;;;;320.70;70.53;;;7.20;99.90;;;;;;5093459;28;20492;-77
2022/02/04 04:26:20;;;;;;;189.53;49.23;;;7.20;99.90;;;;;;5094107;28;20455;-77
2022/02/04 04:28:50;;;;;;;178.77;46.90;;;7.20;99.90;;;;;;5091998;28;20558;-77
2022/02/04 04:31:19;;;;;;;292.17;60.57;;;7.30;99.90;;;;;;5110905;28;20437;-77
2022/02/04 04:33:49;;;;;;;258.97;51.03;;;7.20;99.90;;;;;;5113563;28;20817;-77
2022/02/04 04:36:19;;;;;;;338.07;63.63;;;7.20;99.90;;;;;;5095386;28;20452;-77
2022/02/04 04:38:53;;;;;;;233.27;53.33;;;7.20;99.90;;;;;;5113975;28;20525;-77
2022/02/04 04:41:30;;;;;;;222.43;53.17;;;7.20;99.90;;;;;;5115621;28;20437;-77
2022/02/04 05:31:10;;;;;;;231.67;57.60;;;7.30;99.90;;;;;;5102262;28;20805;-77
2022/02/04 05:33:38;;;;;;;253.87;65.90;;;7.30;99.90;;;;;;5103481;28;20448;-77
2022/02/04 05:36:08;;;;;;;179.83;47.37;;;7.30;99.90;;;;;;5093931;28;20449;-76
2022/02/04 05:38:40;;;;;;;174.60;46.50;;;7.30;99.90;;;;;;5093916;28;20999;-77
2022/02/04 05:41:10;;;;;;;251.53;54.73;;;7.30;99.90;;;;;;5095191;28;20512;-76
2022/02/04 05:43:41;;;;;;;269.23;54.33;;;7.30;99.90;;;;;;5093736;28;20572;-77
2022/02/04 05:46:13;;;;;;;250.77;61.20;;;7.30;99.90;;;;;;5093949;28;20491;-77
2022/02/04 05:48:46;;;;;;;224.97;52.40;;;7.30;99.90;;;;;;5113043;28;21007;-77
2022/02/04 05:51:30;;;;;;;227.70;52.40;;;7.30;99.90;;;;;;5112354;28;20508;-77
2022/02/04 05:54:10;;;;;;;211.50;52.20;;;7.40;99.90;;;;;;5114000;28;20440;-77
2022/02/04 05:56:41;;;;;;;138.80;50.13;;;7.40;99.90;;;;;;5113971;28;20525;-76
2022/02/04 05:59:18;;;;;;;297.10;63.07;;;7.40;99.90;;;;;;5113851;28;21022;-77
2022/02/04 06:01:55;;;;;;;205.60;51.77;;;7.40;99.90;;;;;;5111474;27;20494;-77
2022/02/04 06:04:39;;;;;;;207.23;53.27;;;7.40;99.90;;;;;;5093888;28;21002;-77
2022/02/04 06:07:35;;;;;;;323.00;59.87;;;7.40;99.90;;;;;;5095417;28;20467;-77
2022/02/04 06:10:53;;;;;;;193.13;59.43;;;7.40;99.90;;;;;;5094832;28;21015;-77
2022/02/04 06:13:36;;;;;;;267.27;60.03;;;7.40;99.90;;;;;;5093778;28;20463;-77
2022/02/04 06:24:17;;;;;;;221.73;54.60;;;7.40;99.90;;;;;;5094028;28;20467;-77
2022/02/04 06:26:51;;;;;;;289.87;65.57;;;7.40;99.90;;;;;;5094844;28;20547;-78
2022/02/04 06:29:19;;;;;;;398.63;69.90;;;7.50;99.90;;;;;;5095121;28;20468;-78
2022/02/04 06:31:47;;;;;;;199.20;57.50;;;7.50;99.90;;;;;;5096654;28;20441;-78
2022/02/04 06:34:16;;;;;;;310.10;63.10;;;7.50;99.90;;;;;;5096809;28;20523;-78
2022/02/04 06:36:44;;;;;;;266.03;59.23;;;7.50;99.90;;;;;;5095268;28;20473;-77
2022/02/04 06:39:16;;;;;;;295.33;72.10;;;7.50;99.90;;;;;;5095874;28;20494;-77
2022/02/04 06:41:45;;;;;;;376.67;62.20;;;7.50;99.90;;;;;;5096661;28;20438;-78
2022/02/04 06:44:19;;;;;;;189.53;60.87;;;7.50;99.90;;;;;;5094601;28;20533;-77
2022/02/04 06:46:47;;;;;;;270.93;68.00;;;7.60;99.90;;;;;;5096469;28;20434;-77
2022/02/04 06:49:15;;;;;;;324.57;66.20;;;7.50;99.90;;;;;;5094181;28;20555;-77
2022/02/04 06:51:44;;;;;;;207.93;58.60;;;7.60;99.90;;;;;;5094387;28;20484;-77
2022/02/04 06:54:12;;;;;;;298.40;63.53;;;7.60;99.90;;;;;;5094121;28;20485;-77
2022/02/04 06:56:40;;;;;;;216.67;61.00;;;7.60;99.90;;;;;;5094010;28;20453;-77
2022/02/04 06:59:08;;;;;;;390.57;70.70;;;7.60;99.90;;;;;;5094409;28;20470;-77
2022/02/04 07:01:38;;;;;;;252.07;61.13;;;7.60;99.90;;;;;;5093978;28;20447;-77
2022/02/04 07:04:08;;;;;;;380.90;64.93;;;7.60;99.90;;;;;;5095439;28;20465;-77
2022/02/04 07:06:39;;;;;;;229.90;46.03;;;7.60;99.90;;;;;;5094141;28;20493;-77
2022/02/04 07:09:24;;;;;;;301.13;58.37;;;7.60;99.90;;;;;;5095413;28;20465;-77
2022/02/04 07:14:46;;;;;;;277.43;59.60;;;7.70;99.90;;;;;;5091528;28;20451;-77
2022/02/04 07:17:22;;;;;;;480.40;66.17;;;7.70;99.90;;;;;;5094310;28;20440;-78
2022/02/04 07:19:50;;;;;;;181.93;47.03;;;7.70;99.90;;;;;;5095429;28;20487;-77
2022/02/04 07:22:19;;;;;;;334.93;61.67;;;7.70;99.90;;;;;;5096027;28;20942;-77
2022/02/04 07:24:50;;;;;;;305.30;65.83;;;7.70;99.90;;;;;;5095361;28;20505;-77
2022/02/04 07:27:20;;;;;;;385.97;60.10;;;7.70;99.90;;;;;;5095937;28;20513;-77
2022/02/04 07:29:53;;;;;;;283.13;57.03;;;7.70;99.90;;;;;;5094002;28;20509;-77
2022/02/04 07:32:28;;;;;;;416.67;71.73;;;7.80;99.90;;;;;;5094027;28;20536;-77
2022/02/04 07:35:19;;;;;;;340.60;74.90;;;7.70;99.90;;;;;;5093862;28;20535;-77
2022/02/04 07:43:19;;;;;;;326.80;67.93;;;7.80;99.90;;;;;;5095073;28;20459;-77
2022/02/04 07:45:47;;;;;;;415.47;69.83;;;7.80;99.90;;;;;;5093884;28;20978;-77
2022/02/04 07:48:17;;;;;;;402.93;66.07;;;7.70;99.90;;;;;;5093919;28;20556;-77
2022/02/04 07:50:47;;;;;;;414.77;68.17;;;7.80;99.90;;;;;;5094009;28;20456;-77
2022/02/04 07:53:16;;;;;;;380.30;73.37;;;7.80;99.90;;;;;;5095740;28;20420;-77
2022/02/04 07:55:45;;;;;;;465.77;80.03;;;7.80;99.90;;;;;;5094948;28;20842;-77
2022/02/04 07:58:15;;;;;;;278.57;60.37;;;7.80;99.90;;;;;;5095197;28;20467;-78
2022/02/04 08:00:45;;;;;;;277.47;67.37;;;7.80;99.90;;;;;;5093695;28;20440;-77
2022/02/04 08:03:29;;;;;;;173.77;50.77;;;7.90;99.90;;;;;;5093905;28;20485;-77
2022/02/04 08:06:05;;;;;;;277.57;57.67;;;7.90;99.90;;;;;;5095516;28;20453;-77
2022/02/04 08:08:40;;;;;;;481.33;81.00;;;7.90;99.90;;;;;;5097023;28;20480;-77
2022/02/04 08:11:28;;;;;;;317.07;56.70;;;7.90;99.90;;;;;;5099014;28;20493;-78
2022/02/04 08:17:21;;;;;;;354.60;61.97;;;7.90;99.90;;;;;;5083493;28;20463;-77
2022/02/04 08:23:01;;;;;;;275.03;55.23;;;8.00;99.90;;;;;;5098993;28;20971;-77
2022/02/04 08:50:38;;;;;;;286.33;46.87;;;8.10;99.90;;;;;;5096604;28;20447;-77
2022/02/04 08:53:30;;;;;;;404.77;67.50;;;8.10;99.90;;;;;;5096545;28;20445;-77
2022/02/04 08:55:58;;;;;;;277.83;69.90;;;8.20;99.90;;;;;;5097500;28;20440;-77
2022/02/04 08:58:32;;;;;;;329.67;58.27;;;8.10;99.90;;;;;;5096716;28;20460;-77
2022/02/04 09:01:06;;;;;;;229.80;49.63;;;8.20;99.90;;;;;;5096944;28;20455;-77
2022/02/04 09:03:49;;;;;;;381.70;58.37;;;8.20;99.90;;;;;;5096646;28;20495;-77
2022/02/04 09:06:23;;;;;;;364.83;70.13;;;8.20;99.90;;;;;;5096268;28;20517;-77
2022/02/04 09:08:54;;;;;;;312.03;60.87;;;8.20;99.90;;;;;;5096710;28;20486;-77
2022/02/04 09:19:48;;;;;;;485.87;62.27;;;8.30;99.90;;;;;;5093469;28;20559;-77
2022/02/04 09:22:26;;;;;;;352.07;62.20;;;8.40;99.90;;;;;;5097762;28;20435;-77
2022/02/04 09:24:55;;;;;;;398.93;64.47;;;8.40;99.90;;;;;;5099589;28;20456;-78
2022/02/04 09:27:24;;;;;;;486.73;80.57;;;8.50;99.90;;;;;;5097805;28;20451;-78
2022/02/04 09:29:57;;;;;;;299.30;50.77;;;8.50;99.90;;;;;;5097053;28;20471;-77
2022/02/04 09:32:25;;;;;;;541.83;67.40;;;8.50;99.90;;;;;;5095872;28;20981;-77
2022/02/04 09:34:54;;;;;;;310.57;60.07;;;8.50;99.90;;;;;;5096376;28;20477;-77
2022/02/04 09:37:30;;;;;;;310.77;52.67;;;8.50;99.90;;;;;;5095866;28;20428;-77
2022/02/04 09:39:58;;;;;;;283.77;47.37;;;8.60;99.90;;;;;;5095737;28;20506;-77
2022/02/04 09:42:29;;;;;;;379.60;56.93;;;8.60;99.90;;;;;;5095593;28;20840;-77
2022/02/04 09:44:57;;;;;;;509.77;61.03;;;8.70;99.90;;;;;;5096860;28;20456;-77
2022/02/04 09:47:34;;;;;;;304.43;67.03;;;8.70;99.90;;;;;;5096000;28;20444;-77
2022/02/04 09:50:14;;;;;;;246.70;54.73;;;8.70;99.90;;;;;;5096947;28;20547;-77
2022/02/04 10:04:49;;;;;;;331.23;57.53;;;9.00;99.90;;;;;;5094916;28;20490;-77
2022/02/04 10:16:05;;;;;;;506.33;69.23;;;9.20;99.90;;;;;;5085476;28;20488;-77
2022/02/04 10:18:40;;;;;;;521.70;81.10;;;9.20;99.90;;;;;;5095031;28;20468;-77
2022/02/04 10:21:11;;;;;;;434.27;105.17;;;9.20;99.90;;;;;;5095247;28;20462;-77
2022/02/04 10:23:48;;;;;;;496.50;74.73;;;9.30;99.90;;;;;;5095299;28;20440;-77
2022/02/04 10:26:17;;;;;;;395.87;110.27;;;9.30;99.90;;;;;;5096159;28;20478;-77
2022/02/04 10:28:47;;;;;;;472.23;80.67;;;9.30;99.90;;;;;;5095396;28;20498;-77
2022/02/04 10:31:21;;;;;;;456.27;98.23;;;9.40;99.90;;;;;;5093913;28;20455;-77
2022/02/04 10:33:58;;;;;;;582.93;128.93;;;9.40;99.90;;;;;;5094475;28;20447;-77
2022/02/04 10:36:41;;;;;;;627.77;113.40;;;9.40;99.90;;;;;;5094164;28;20443;-77
2022/02/04 10:39:42;;;;;;;465.13;70.03;;;9.40;99.90;;;;;;5095676;28;20969;-77
2022/02/04 10:42:21;;;;;;;715.73;167.67;;;9.50;99.90;;;;;;5094038;28;20509;-77
2022/02/04 10:45:14;;;;;;;429.60;109.03;;;9.50;99.90;;;;;;5093907;28;20472;-77
2022/02/04 10:48:01;;;;;;;730.93;94.27;;;9.50;99.90;;;;;;5095650;28;20808;-77
2022/02/04 10:51:03;;;;;;;466.87;77.67;;;9.50;99.90;;;;;;5095465;28;20439;-77
2022/02/04 10:54:09;;;;;;;542.70;115.93;;;9.60;99.90;;;;;;5093982;28;20518;-77
2022/02/04 10:59:30;;;;;;;1068.07;144.43;;;9.60;99.90;;;;;;5093998;28;20471;-77
2022/02/04 11:02:19;;;;;;;467.40;99.43;;;9.60;99.90;;;;;;5092942;28;20451;-77
2022/02/04 11:05:01;;;;;;;594.40;121.67;;;9.60;99.90;;;;;;5093571;28;20517;-77
2022/02/04 11:08:07;;;;;;;633.53;152.33;;;9.60;99.90;;;;;;5092939;28;20452;-77
2022/02/04 11:11:01;;;;;;;534.00;125.07;;;9.60;99.90;;;;;;5093502;28;20543;-77
2022/02/04 11:36:45;;;;;;;1152.07;263.73;;;9.80;99.90;;;;;;5116976;27;20535;-78
2022/02/04 11:51:45;;;;;;;352.87;78.30;;;9.80;99.90;;;;;;5091794;28;20450;-79
2022/02/04 11:54:33;;;;;;;479.40;104.43;;;9.80;99.90;;;;;;5108118;28;20526;-79
2022/02/04 11:57:25;;;;;;;615.03;116.53;;;9.80;99.90;;;;;;5105340;28;20432;-78
2022/02/04 12:00:04;;;;;;;483.87;95.80;;;9.80;99.90;;;;;;5116012;28;20463;-78
2022/02/04 12:02:40;;;;;;;562.87;112.43;;;9.70;99.90;;;;;;5097938;28;21012;-78
2022/02/04 12:05:30;;;;;;;554.20;128.10;;;9.70;99.90;;;;;;5115209;28;20522;-78
2022/02/04 12:08:30;;;;;;;698.00;120.43;;;9.70;99.90;;;;;;5097366;28;20794;-79
2022/02/04 12:11:06;;;;;;;660.87;148.63;;;9.70;99.90;;;;;;5097091;28;20443;-78
2022/02/04 12:14:10;;;;;;;752.47;155.10;;;9.70;99.90;;;;;;5096705;28;20443;-79
2022/02/04 12:17:07;;;;;;;366.20;83.37;;;9.70;99.90;;;;;;5096713;28;20519;-79
2022/02/04 12:19:43;;;;;;;119.67;42.67;;;9.70;99.90;;;;;;5096937;28;20459;-78
2022/02/04 12:22:13;;;;;;;579.07;92.50;;;9.70;99.90;;;;;;5096532;28;20944;-78
2022/02/04 12:24:46;;;;;;;600.40;148.83;;;9.70;99.90;;;;;;5096441;28;20439;-78
2022/02/04 12:27:36;;;;;;;774.20;106.60;;;9.60;99.90;;;;;;5097159;28;20522;-79
2022/02/04 12:30:45;;;;;;;679.37;130.07;;;9.60;99.90;;;;;;5115075;28;20545;-78
2022/02/04 12:33:17;;;;;;;792.70;151.23;;;9.60;99.90;;;;;;5096192;28;20482;-79
2022/02/04 12:35:46;;;;;;;623.63;115.30;;;9.60;99.90;;;;;;5096653;28;20498;-78
2022/02/04 12:38:14;;;;;;;498.47;101.93;;;9.60;99.90;;;;;;5096238;28;20467;-78
2022/02/04 12:40:43;;;;;;;632.10;134.37;;;9.70;99.90;;;;;;5096514;28;20470;-78
2022/02/04 12:43:15;;;;;;;763.00;169.87;;;9.70;99.90;;;;;;5096762;28;20446;-78
2022/02/04 12:45:47;;;;;;;788.53;151.83;;;9.60;99.90;;;;;;5112049;28;20445;-78
2022/02/04 12:48:16;;;;;;;600.07;118.13;;;9.70;99.90;;;;;;5082629;28;20474;-78
2022/02/04 12:50:45;;;;;;;1186.33;243.33;;;9.70;99.90;;;;;;5082817;28;20451;-78
2022/02/04 12:53:23;;;;;;;1448.03;282.77;;;9.70;99.90;;;;;;5082460;28;20452;-78
2022/02/04 12:56:32;;;;;;;1345.90;261.77;;;9.80;99.90;;;;;;5083231;28;20535;-78
2022/02/04 12:59:24;;;;;;;836.33;120.03;;;9.80;99.90;;;;;;5082760;28;20499;-79
2022/02/04 13:02:02;;;;;;;759.10;164.27;;;9.80;99.90;;;;;;5082567;28;20448;-78
2022/02/04 13:10:18;;;;;;;936.27;176.67;;;9.80;99.90;;;;;;5100418;28;20424;-78
2022/02/04 13:12:59;;;;;;;1075.50;242.13;;;9.80;99.90;;;;;;5081915;28;20462;-78
2022/02/04 13:15:29;;;;;;;1080.37;231.97;;;9.80;99.90;;;;;;5081893;28;20452;-79
2022/02/04 13:17:57;;;;;;;1677.97;338.30;;;9.80;99.90;;;;;;5100104;28;20462;-79
2022/02/04 13:20:27;;;;;;;1979.17;407.37;;;9.80;99.90;;;;;;5081789;28;20452;-78
2022/02/04 13:22:58;;;;;;;1999.90;415.90;;;9.80;99.90;;;;;;5081301;28;20498;-78
2022/02/04 13:25:31;;;;;;;1999.90;360.13;;;9.80;99.90;;;;;;5081682;28;20528;-79
2022/02/04 13:28:07;;;;;;;1335.87;262.73;;;9.90;99.90;;;;;;5099935;28;20515;-78
2022/02/04 13:30:38;;;;;;;1983.93;347.33;;;9.90;99.90;;;;;;5099980;28;20462;-78
2022/02/04 13:33:16;;;;;;;1972.27;434.93;;;9.90;99.90;;;;;;5081011;28;20441;-78
2022/02/04 13:35:53;;;;;;;1985.03;455.57;;;9.90;99.90;;;;;;5099586;28;20547;-78
2022/02/04 13:38:28;;;;;;;1961.00;387.67;;;9.90;99.90;;;;;;5081851;28;20900;-78
2022/02/04 13:44:16;;;;;;;1830.07;340.13;;;9.90;99.90;;;;;;5081756;28;20500;-78
2022/02/04 13:46:41;;;;;;;1200.57;216.37;;;9.90;99.90;;;;;;5080610;28;20436;-78
2022/02/04 13:52:03;;;;;;;855.33;181.37;;;9.80;99.90;;;;;;5073673;28;20448;-78
2022/02/04 13:54:52;;;;;;;970.93;196.10;;;9.80;99.90;;;;;;5099678;28;20510;-78
2022/02/04 13:57:28;;;;;;;906.70;138.50;;;9.80;99.90;;;;;;5080519;28;20510;-78
2022/02/04 14:00:23;;;;;;;929.77;184.83;;;9.80;99.90;;;;;;5080566;28;20510;-78
2022/02/04 14:02:55;;;;;;;1399.43;180.47;;;9.80;99.90;;;;;;5098769;28;20452;-78
2022/02/04 14:05:33;;;;;;;1130.10;240.40;;;9.80;99.90;;;;;;5080670;28;20554;-78
2022/02/04 14:08:07;;;;;;;824.40;172.93;;;9.80;99.90;;;;;;5080512;28;20447;-78
2022/02/04 14:10:42;;;;;;;608.53;153.20;;;9.80;99.90;;;;;;5080388;28;20447;-78
2022/02/04 14:13:12;;;;;;;857.83;179.90;;;9.80;99.90;;;;;;5098677;28;20850;-78
2022/02/04 14:15:43;;;;;;;944.70;181.67;;;9.80;99.90;;;;;;5079775;28;20536;-78
2022/02/04 14:18:12;;;;;;;790.10;140.30;;;9.80;99.90;;;;;;5079645;28;20468;-79
2022/02/04 14:20:45;;;;;;;906.83;156.30;;;9.70;99.90;;;;;;5079710;28;20440;-78
2022/02/04 14:23:14;;;;;;;689.63;129.40;;;9.70;99.90;;;;;;5080685;28;20451;-78
2022/02/04 14:25:49;;;;;;;848.57;186.80;;;9.70;99.90;;;;;;5080600;28;20790;-78
2022/02/04 14:28:23;;;;;;;680.80;142.20;;;9.70;99.90;;;;;;5079969;28;21045;-78
2022/02/04 14:31:00;;;;;;;986.77;219.77;;;9.70;99.90;;;;;;5079847;28;20443;-78
2022/02/04 14:36:22;;;;;;;385.40;89.60;;;9.70;99.90;;;;;;5076484;28;20558;-78
2022/02/04 14:50:22;;;;;;;195.43;65.07;;;9.60;99.90;;;;;;5058185;28;20547;-79
2022/02/04 14:53:17;;;;;;;432.83;90.57;;;9.60;99.90;;;;;;5059027;28;20943;-78
2022/02/04 15:01:21;;;;;;;298.50;70.53;;;9.60;99.90;;;;;;5076747;28;20451;-78
2022/02/04 15:04:01;;;;;;;452.10;100.33;;;9.60;99.90;;;;;;5058823;28;20449;-78
2022/02/04 15:06:32;;;;;;;507.57;107.57;;;9.60;99.90;;;;;;5060030;28;20452;-78
2022/02/04 15:09:09;;;;;;;357.67;84.17;;;9.50;99.90;;;;;;5077126;28;20460;-78
2022/02/04 15:11:38;;;;;;;448.67;115.00;;;9.50;99.90;;;;;;5077710;28;20531;-78
2022/02/04 15:14:08;;;;;;;433.67;79.30;;;9.50;99.90;;;;;;5077372;28;20441;-78
2022/02/04 15:16:37;;;;;;;328.00;68.57;;;9.50;99.90;;;;;;5079091;28;20464;-78
2022/02/04 15:19:07;;;;;;;480.53;129.83;;;9.50;99.90;;;;;;5081036;28;20983;-78
2022/02/04 15:21:35;;;;;;;169.90;36.93;;;9.50;99.90;;;;;;5065376;28;20445;-77
2022/02/04 15:24:03;;;;;;;708.63;112.23;;;9.40;99.90;;;;;;5059013;28;20871;-78
2022/02/04 15:26:32;;;;;;;544.07;83.93;;;9.40;99.90;;;;;;5076929;28;20526;-78
2022/02/04 15:29:03;;;;;;;461.23;75.87;;;9.40;99.90;;;;;;5077460;28;20488;-78
2022/02/04 15:31:40;;;;;;;518.00;77.57;;;9.30;99.90;;;;;;5065021;28;20433;-79
2022/02/04 15:34:11;;;;;;;313.50;66.73;;;9.40;99.90;;;;;;5064543;28;20524;-78
2022/02/04 15:36:42;;;;;;;537.63;66.70;;;9.40;99.90;;;;;;5081899;28;20452;-78
2022/02/04 15:39:14;;;;;;;418.73;45.60;;;9.30;99.90;;;;;;5074182;28;21041;-78
2022/02/04 15:41:46;;;;;;;374.43;63.67;;;9.30;99.90;;;;;;5064408;28;20435;-78
2022/02/04 15:44:22;;;;;;;575.20;72.30;;;9.30;99.90;;;;;;5064519;28;20455;-78
2022/02/04 15:47:17;;;;;;;523.50;93.90;;;9.30;99.90;;;;;;5080839;28;20421;-78
2022/02/04 15:49:59;;;;;;;424.83;64.93;;;9.20;99.90;;;;;;5079819;28;20464;-78
2022/02/04 15:52:44;;;;;;;254.57;54.93;;;9.20;99.90;;;;;;5061280;28;20571;-78
2022/02/04 15:55:33;;;;;;;369.90;69.67;;;9.10;99.90;;;;;;5061109;28;20496;-78
2022/02/04 15:58:18;;;;;;;437.77;60.77;;;9.10;99.90;;;;;;5065049;28;20498;-78
2022/02/04 16:03:47;;;;;;;500.30;52.43;;;9.00;99.90;;;;;;5048752;28;20444;-78
2022/02/04 16:06:20;;;;;;;340.73;39.07;;;8.90;99.90;;;;;;5060655;28;20464;-78
2022/02/04 16:08:49;;;;;;;307.40;43.13;;;8.90;99.90;;;;;;5059826;28;20494;-78
2022/02/04 16:11:30;;;;;;;415.70;40.83;;;8.90;99.90;;;;;;5060576;28;20453;-78
2022/02/04 16:16:51;;;;;;;366.90;55.13;;;8.80;99.90;;;;;;5063562;28;20467;-78
2022/02/04 16:19:28;;;;;;;270.87;34.47;;;8.70;99.90;;;;;;5080874;28;20548;-78
2022/02/04 16:22:16;;;;;;;435.57;46.57;;;8.70;99.90;;;;;;5064758;28;20520;-78
2022/02/04 16:30:26;;;;;;;382.77;49.37;;;8.40;99.90;;;;;;5022714;28;20476;-78
2022/02/04 16:32:54;;;;;;;272.03;40.37;;;8.20;99.90;;;;;;5038636;28;20529;-78
2022/02/04 16:35:23;;;;;;;280.83;31.37;;;8.00;99.90;;;;;;5050249;28;20818;-79
2022/02/04 16:38:01;;;;;;;309.07;38.83;;;7.80;99.90;;;;;;5073837;28;20563;-78
2022/02/04 16:40:31;;;;;;;264.63;36.67;;;7.60;99.90;;;;;;5062409;28;20505;-79
2022/02/04 16:42:59;;;;;;;466.57;39.90;;;7.30;99.90;;;;;;5063894;28;20532;-78
2022/02/04 16:45:28;;;;;;;462.97;60.17;;;7.00;99.90;;;;;;5073927;28;20550;-78
2022/02/04 16:47:57;;;;;;;506.43;39.50;;;6.80;99.90;;;;;;5071664;28;20446;-78
2022/02/04 16:50:26;;;;;;;306.63;53.77;;;6.60;99.90;;;;;;5098709;28;20433;-78
2022/02/04 16:52:55;;;;;;;448.27;74.40;;;6.40;99.90;;;;;;5070646;28;20446;-78
2022/02/04 16:55:24;;;;;;;178.00;62.23;;;6.30;99.90;;;;;;5078207;28;20461;-78
2022/02/04 16:57:54;;;;;;;1489.30;213.83;;;6.10;99.90;;;;;;5077819;28;20499;-78
2022/02/04 17:00:24;;;;;;;875.00;167.03;;;6.00;99.90;;;;;;5098809;28;20457;-78
2022/02/04 17:02:59;;;;;;;1897.23;311.23;;;5.90;99.90;;;;;;5080241;28;20448;-79
2022/02/04 17:05:36;;;;;;;1999.90;525.27;;;5.70;99.90;;;;;;5080681;28;20444;-78
2022/02/04 17:08:08;;;;;;;1999.90;533.80;;;5.70;99.90;;;;;;5063864;28;20453;-78
2022/02/04 17:10:41;;;;;;;1999.90;534.60;;;5.50;99.90;;;;;;5060162;28;20441;-77
2022/02/04 17:13:09;;;;;;;1999.90;570.57;;;5.40;99.90;;;;;;5065629;28;20460;-78
2022/02/04 17:15:39;;;;;;;1999.90;530.50;;;5.30;99.90;;;;;;5083115;28;21009;-77
2022/02/04 17:18:08;;;;;;;1999.90;498.30;;;5.30;99.90;;;;;;5059922;28;20571;-78
2022/02/04 17:20:37;;;;;;;1999.90;654.03;;;5.20;99.90;;;;;;5059847;28;20972;-78
2022/02/04 17:23:09;;;;;;;1999.90;638.87;;;5.20;99.90;;;;;;5077841;28;20444;-78
2022/02/04 17:25:39;;;;;;;1999.90;468.70;;;5.10;99.90;;;;;;5077676;28;20433;-78
2022/02/04 17:28:07;;;;;;;1999.90;530.70;;;5.10;99.90;;;;;;5060060;28;20464;-78
2022/02/04 17:30:36;;;;;;;1999.90;489.47;;;5.00;99.90;;;;;;5078412;28;20445;-78
2022/02/04 17:33:05;;;;;;;1999.90;625.17;;;5.00;99.90;;;;;;5060566;28;20459;-79
2022/02/04 17:35:33;;;;;;;1999.90;746.10;;;4.90;99.90;;;;;;5059466;28;20836;-78